首页
METAR-TAF:

METAR-TAF

机场 :

Nordholz, 德国

纬度: 53-46N, 经度: 008-40E, 海拔: 23米

当前天气观测

该预报发布于1小时和11分钟前的16:20 UTC
风速7节,风向西转西南
温度 3°C
湿度 93%
气压 1020 hPa
能見度: 2200
阴天层高于100英尺
小毛毛雨, 轻雾

METAR: ETMN 241620Z 24007KT 2200 -DZ BR OVC001 03/02 Q1020 RED

时间: 18:31 (17:31 UTC)

预报

该预报发布于6小时和20分钟前的11:11 UTC
预报有效从24日的 12点(UTC)到 24日的 21点(UTC)
风速10节,风向西南
能見度: 3000
多云层高于300英尺
轻雾
短暂存在
从 24日的 12点(UTC)到 24日的 21点(UTC)
风速8节,风向西南
能見度: 1500
阴天层高于100英尺
轻雾

TAF: ETMN 241111Z 2412/2421 23010KT 3000 BR BKN003 TEMPO 2412/2421 23008KT 1500 BR OVC001

超过4000个机场的气象观测和天气预报(METAR&TAF报告)。

可查询的气象台以黄色和红色小点在地图上表示。

将鼠标移到小点上方,可查看气象台名称。

然后点击查看天气观测和预报。

如需切换地图:点击带黑十字的绿色按钮放大地图;点击带横线的绿色按钮缩小地图;或者点击绿色箭头查看邻近地区的地图。


METAR-TAF: